Taipei Control 台北區域管制席

Taipei Control METAR:
Taipei QNH:
2017/12/16 16:00 RCTP 161600Z 04024KT 9999 SCT012 BKN022 BKN030 13/09 Q1027 WS ALL RWY NOSIG RMK A3035
Kaoshiung QNH:
2017/12/16 16:00 RCKH 161600Z 36006KT 320V030 9999 FEW015 SCT030 BKN045 17/12 Q1020 NOSIG RMK A3012

台北區域管制席-海峽席
站台狀態:

台北區域管制席-北部席
站台狀態:

台北區域管制席-西部席
站台狀態:

台北飛航服務區-掃描席(區管/近場)
站台狀態: